Las horas y fechas están en horario UTC.
Sumar 1 hora en el horario de invierno y 2 horas en el de verano

Informes METAR cercanos

 

LEZL - Sevilla (civ/Mil, Spain
Distance from station: NNE 24km
Actualización: 15/05/2021 08:00
Despejado
Despejado
 Viento del N
Viento: N 6 km/h
Temperatura: 14°C
Rocío: 11°C
Humedad: 82%
Barómetro: 1017 hPa
Resumen: Despejado
Visibility: greater than 10 km
2021/05/15 06:00 LEZL 150600Z 01003KT CAVOK 14/11 Q1017 NOSIG
LEMO - Moron (sp-Usafb), Spain
Distance from station: E 38km
Actualización: 15/05/2021 08:00
Despejado
Despejado
 Viento del varies
Viento: varies 4 km/h
Temperatura: 12°C
Rocío: 8°C
Humedad: 77%
Barómetro: 1017 hPa
Resumen: Despejado
Visibility: greater than 10 km
2021/05/15 06:00 LEMO 150600Z VRB02KT CAVOK 12/08 Q1017 NOSIG
LEJR - Jerez (civ/Mil), Spain
Distance from station: S 53km
Actualización: 15/05/2021 08:00
Despejado
Despejado
 Viento del calm
Viento: Calma
Temperatura: 11°C
Rocío: 10°C
Humedad: 94%
Barómetro: 1017 hPa
Resumen: Despejado
Visibility: greater than 10 km
2021/05/15 06:00 LEJR 150600Z 00000KT CAVOK 11/10 Q1017
 
LERT - Rota Naval Stati, Spain
Distance from station: SSO 71km
Actualización: 15/05/2021 08:00
Despejado
Despejado
 Viento del NE
Viento: NE 6 km/h
Temperatura: 15°C
Rocío: 12°C
Humedad: 82%
Barómetro: 1017 hPa
Resumen: Despejado
Visibility: greater than 10 km
2021/05/15 06:00 LERT 150600Z 04003KT 360V080 CAVOK 15/12 Q1017 NOSIG
LEBA - Cordoba Airport, Spain
Distance from station: ENE 128km
Actualización: 15/05/2021 08:00
Despejado
Despejado
 Viento del varies
Viento: varies 2 km/h
Temperatura: 10°C
Rocío: 7°C
Humedad: 82%
Barómetro: 1017 hPa
Resumen: Despejado
Visibility: greater than 10 km
2021/05/15 06:00 LEBA 150600Z VRB01KT CAVOK 10/07 Q1017
LXGB - Gibraltar (civ/M, Gibraltar
Distance from station: SSE 137km
Actualización: 15/05/2021 07:50
Despejado
Despejado
 Viento del NE
Viento: NE 4 km/h
Temperatura: 17°C
Rocío: 13°C
Humedad: 77%
Barómetro: 1017 hPa
Resumen: Despejado
Visibility: greater than 10 km
2021/05/15 05:50 LXGB 150550Z 05002KT CAVOK 17/13 Q1017 RMK BLU
 
LEMG - Malaga (civ/Mil), Spain
Distance from station: ESE 150km
Actualización: 15/05/2021 08:00
Despejado
Despejado
 Viento del ONO
Viento: ONO 17 km/h
Temperatura: 14°C
Rocío: 10°C
Humedad: 77%
Barómetro: 1017 hPa
Resumen: Despejado
Visibility: greater than 10 km
2021/05/15 06:00 LEMG 150600Z 29009KT CAVOK 14/10 Q1017 NOSIG
GMTT - Tangier/Boukhalf, Morocco
Distance from station: S 169km
Actualización: 15/05/2021 08:00
Despejado
Despejado
 Viento del E
Viento: E 9 km/h
Temperatura: 17°C
Rocío: 14°C
Humedad: 83%
Barómetro: 1015 hPa
Resumen: Despejado
Visibility: greater than 10 km
2021/05/15 06:00 GMTT 150600Z 08005KT 050V110 CAVOK 17/14 Q1015 NOSIG
LPFR - Faro, Portugal
Distance from station: O 172km
Actualización: 15/05/2021 08:00
Despejado
Despejado
 Viento del NE
Viento: NE 7 km/h
Temperatura: 17°C
Rocío: 11°C
Humedad: 68%
Barómetro: 1017 hPa
Resumen: Despejado
Visibility: greater than 10 km
2021/05/15 06:00 LPFR 150600Z 05004KT 360V070 CAVOK 17/11 Q1017
 
LPBJ - Beja (por/Ger-Af, Portugal
Distance from station: ONO 192km
Actualización: 15/05/2021 08:00
Nearby fog, Few clouds
Nearby fog, Few clouds
 Viento del NNO
Viento: NNO 4 km/h
Temperatura: 11°C
Rocío: 10°C
Humedad: 94%
Barómetro: 1019 hPa
Resumen: Nearby Fog
Clouds: Few Clouds
Visibility: 10 km
Cloud details: Few Clouds 183 m
2021/05/15 06:00 LPBJ 150600Z 34002KT 9999 VCFG FEW006 11/10 Q1019
LEBZ - Talavera Ab/Bada, Spain
Distance from station: NNO 194km
Actualización: 15/05/2021 08:00
Muy nuboso
Muy nuboso
 Viento del O
Viento: O 15 km/h
Temperatura: 13°C
Rocío: 12°C
Humedad: 94%
Barómetro: 1018 hPa
Clouds: Muy nuboso
Visibility: 10 km
Cloud details: Muy nuboso 213 m
2021/05/15 06:00 LEBZ 150600Z 26008KT 230V290 9999 BKN007 13/12 Q1018
LEMD - Madrid/Barajas, Spain
Distance from station: NE 415km
Actualización: 15/05/2021 08:00
Despejado
Despejado
 Viento del SSE
Viento: SSE 7 km/h
Temperatura: 12°C
Rocío: 8°C
Humedad: 77%
Barómetro: 1016 hPa
Resumen: Despejado
Visibility: greater than 10 km
2021/05/15 06:00 LEMD 150600Z 15004KT 110V170 CAVOK 12/08 Q1016 NOSIG